createdAt,value
2018-11-21T00:01:28.765Z,39.67
2018-11-21T00:03:59.105Z,39.30
2018-11-21T00:06:31.478Z,35.80
2018-11-21T00:09:01.837Z,37.00
2018-11-21T00:11:32.115Z,38.57
2018-11-21T00:14:02.615Z,37.57
2018-11-21T00:16:34.687Z,38.57
2018-11-21T00:19:05.981Z,38.03
2018-11-21T00:21:38.423Z,37.23
2018-11-21T00:24:09.035Z,39.67
2018-11-21T00:26:39.369Z,36.67
2018-11-21T00:29:09.790Z,39.17
2018-11-21T00:31:40.207Z,38.10
2018-11-21T00:34:11.454Z,37.13
2018-11-21T00:36:42.223Z,35.77
2018-11-21T00:39:13.734Z,36.58
2018-11-21T00:41:44.492Z,36.90
2018-11-21T00:44:14.794Z,34.38
2018-11-21T00:46:45.111Z,36.87
2018-11-21T00:49:17.630Z,35.68
2018-11-21T00:51:48.236Z,36.70
2018-11-21T00:54:18.556Z,34.73
2018-11-21T00:56:51.271Z,35.98
2018-11-21T00:59:22.165Z,34.67
2018-11-21T01:01:52.967Z,34.17
2018-11-21T01:04:23.275Z,34.63
2018-11-21T01:06:53.838Z,32.87
2018-11-21T01:09:24.270Z,33.03
2018-11-21T01:11:57.059Z,34.33
2018-11-21T01:14:27.425Z,32.90
2018-11-21T01:16:57.813Z,32.53
2018-11-21T01:19:28.646Z,31.73
2018-11-21T01:21:59.461Z,31.30
2018-11-21T01:24:29.822Z,31.87
2018-11-21T01:27:00.211Z,29.67
2018-11-21T01:29:30.994Z,30.77
2018-11-21T01:32:01.316Z,30.62
2018-11-21T01:34:32.038Z,29.87
2018-11-21T01:37:02.372Z,29.67
2018-11-21T01:39:32.648Z,28.23
2018-11-21T01:42:03.176Z,28.70
2018-11-21T01:44:33.612Z,27.80
2018-11-21T01:47:05.664Z,28.23
2018-11-21T01:49:35.904Z,28.90
2018-11-21T01:52:06.840Z,27.67
2018-11-21T01:54:37.115Z,27.83
2018-11-21T01:57:07.362Z,27.23
2018-11-21T01:59:38.244Z,26.83
2018-11-21T02:02:08.655Z,26.93
2018-11-21T02:04:41.173Z,26.82
2018-11-21T02:07:12.308Z,27.07
2018-11-21T02:09:43.045Z,26.37
2018-11-21T02:12:14.279Z,24.97
2018-11-21T02:14:44.845Z,26.83
2018-11-21T02:17:15.240Z,25.70
2018-11-21T02:19:45.493Z,25.53
2018-11-21T02:22:17.567Z,25.53
2018-11-21T02:24:47.795Z,24.87
2018-11-21T02:27:18.146Z,23.23
2018-11-21T02:29:48.495Z,24.27
2018-11-21T02:32:19.003Z,24.80
2018-11-21T02:34:50.718Z,24.27
2018-11-21T02:37:23.100Z,22.67
2018-11-21T02:39:53.353Z,24.10
2018-11-21T02:42:23.622Z,23.73
2018-11-21T02:44:54.147Z,23.50
2018-11-21T02:47:24.321Z,23.67
2018-11-21T02:49:56.276Z,23.43
2018-11-21T02:52:26.722Z,22.27
2018-11-21T02:54:57.297Z,23.73
2018-11-21T02:57:29.067Z,23.53
2018-11-21T03:00:01.626Z,24.13
2018-11-21T03:02:32.003Z,22.77
2018-11-21T03:05:03.683Z,23.42
2018-11-21T03:07:34.029Z,23.63
2018-11-21T03:10:04.381Z,23.98
2018-11-21T03:12:34.772Z,22.97
2018-11-21T03:15:05.123Z,23.03
2018-11-21T03:17:35.269Z,23.13
2018-11-21T03:20:06.003Z,23.40
2018-11-21T03:22:36.348Z,22.07
2018-11-21T03:25:06.859Z,22.33
2018-11-21T03:27:37.093Z,22.30
2018-11-21T03:30:11.732Z,21.80
2018-11-21T03:32:42.324Z,22.27
2018-11-21T03:35:12.624Z,22.07
2018-11-21T03:37:42.891Z,22.10
2018-11-21T03:40:13.365Z,21.17
2018-11-21T03:42:43.779Z,20.27
2018-11-21T03:45:14.470Z,21.97
2018-11-21T03:47:44.945Z,21.03
2018-11-21T03:50:15.954Z,21.12
2018-11-21T03:52:46.344Z,21.48
2018-11-21T03:55:16.570Z,21.50
2018-11-21T03:57:46.917Z,21.27
2018-11-21T04:00:17.017Z,21.12
2018-11-21T04:02:47.854Z,21.60
2018-11-21T04:05:18.218Z,20.90
2018-11-21T04:07:48.554Z,20.83
2018-11-21T04:10:18.722Z,21.03
2018-11-21T04:12:49.600Z,19.87
2018-11-21T04:15:20.066Z,20.80
2018-11-21T04:17:50.610Z,21.87
2018-11-21T04:20:21.489Z,20.87
2018-11-21T04:22:51.971Z,20.17
2018-11-21T04:25:22.137Z,19.93
2018-11-21T04:27:52.466Z,19.83
2018-11-21T04:30:22.777Z,20.37
2018-11-21T04:32:53.362Z,18.97
2018-11-21T04:35:23.476Z,19.70
2018-11-21T04:37:54.041Z,19.50
2018-11-21T04:40:24.446Z,19.80
2018-11-21T04:42:54.681Z,21.27
2018-11-21T04:45:24.880Z,19.17
2018-11-21T04:47:56.001Z,18.93
2018-11-21T04:50:25.518Z,20.57
2018-11-21T04:52:55.940Z,20.70
2018-11-21T04:55:26.148Z,19.83
2018-11-21T04:57:56.352Z,20.10
2018-11-21T05:00:26.941Z,20.63
2018-11-21T05:02:57.143Z,19.00
2018-11-21T05:05:27.968Z,20.10
2018-11-21T05:07:58.406Z,20.37
2018-11-21T05:10:28.639Z,20.23
2018-11-21T05:12:58.977Z,20.20
2018-11-21T05:15:30.397Z,18.87
2018-11-21T05:18:02.682Z,18.77
2018-11-21T05:20:34.433Z,20.13
2018-11-21T05:23:07.342Z,19.37
2018-11-21T05:25:37.478Z,19.40
2018-11-21T05:28:09.737Z,17.33
2018-11-21T05:30:39.970Z,18.27
2018-11-21T05:33:10.312Z,17.40
2018-11-21T05:35:42.728Z,18.73
2018-11-21T05:38:13.315Z,18.53
2018-11-21T05:40:43.877Z,18.07
2018-11-21T05:43:14.327Z,19.07
2018-11-21T05:45:44.763Z,19.07
2018-11-21T05:48:15.216Z,19.60
2018-11-21T05:50:45.629Z,18.57
2018-11-21T05:53:16.357Z,19.67
2018-11-21T05:55:46.674Z,20.00
2018-11-21T05:58:17.203Z,20.40
2018-11-21T06:00:49.658Z,19.37
2018-11-21T06:03:22.291Z,20.60
2018-11-21T06:05:52.751Z,20.23
2018-11-21T06:08:23.504Z,20.63
2018-11-21T06:10:54.863Z,20.37
2018-11-21T06:13:25.074Z,20.77
2018-11-21T06:15:55.254Z,20.83
2018-11-21T06:18:25.493Z,21.70
2018-11-21T06:20:58.901Z,20.63
2018-11-21T06:23:30.574Z,20.83
2018-11-21T06:26:02.259Z,21.90
2018-11-21T06:28:33.166Z,21.83
2018-11-21T06:31:03.443Z,20.27
2018-11-21T06:33:35.774Z,20.53
2018-11-21T06:36:05.908Z,20.60
2018-11-21T06:38:38.099Z,21.27
2018-11-21T06:41:08.267Z,20.62
2018-11-21T06:43:38.836Z,21.10
2018-11-21T06:46:09.300Z,20.07
2018-11-21T06:48:39.744Z,20.97
2018-11-21T06:51:09.918Z,20.72
2018-11-21T06:53:40.310Z,20.43
2018-11-21T06:56:11.886Z,20.87
2018-11-21T06:58:42.259Z,21.50
2018-11-21T07:01:12.521Z,18.27
2018-11-21T07:03:42.999Z,19.33
2018-11-21T07:06:13.396Z,20.10
2018-11-21T07:08:44.047Z,19.00
2018-11-21T07:11:14.196Z,21.35
2018-11-21T07:13:44.471Z,19.57
2018-11-21T07:16:14.643Z,19.20
2018-11-21T07:18:44.928Z,19.00
2018-11-21T07:21:15.139Z,19.02
2018-11-21T07:23:45.775Z,19.43
2018-11-21T07:26:16.018Z,19.05
2018-11-21T07:28:46.195Z,18.70
2018-11-21T07:31:16.625Z,18.52
2018-11-21T07:33:48.357Z,18.60
2018-11-21T07:36:18.741Z,19.43
2018-11-21T07:38:49.483Z,19.50
2018-11-21T07:41:19.830Z,19.85
2018-11-21T07:43:50.182Z,20.37
2018-11-21T07:46:20.455Z,19.92
2018-11-21T07:48:50.686Z,20.23
2018-11-21T07:51:21.092Z,20.50
2018-11-21T07:53:51.493Z,21.40
2018-11-21T07:57:03.836Z,21.48
2018-11-21T07:59:35.529Z,20.80
2018-11-21T08:02:17.169Z,21.47
2018-11-21T08:04:58.333Z,20.90
2018-11-21T08:07:36.910Z,22.43
2018-11-21T08:10:27.034Z,22.13
2018-11-21T08:13:25.462Z,22.97
2018-11-21T08:16:20.642Z,21.10
2018-11-21T08:19:15.965Z,22.10
2018-11-21T08:22:20.406Z,20.93
2018-11-21T08:25:12.497Z,22.37
2018-11-21T08:28:02.144Z,20.63
2018-11-21T08:30:32.565Z,22.03
2018-11-21T08:33:02.870Z,22.20
2018-11-21T08:35:33.058Z,21.80
2018-11-21T08:38:03.606Z,20.53
2018-11-21T08:40:33.904Z,22.33
2018-11-21T08:43:04.361Z,23.47
2018-11-21T08:45:34.766Z,21.90
2018-11-21T08:48:06.149Z,22.73
2018-11-21T08:50:37.504Z,22.30
2018-11-21T08:53:08.296Z,23.30
2018-11-21T08:55:38.829Z,23.27
2018-11-21T08:58:09.533Z,23.60
2018-11-21T09:00:40.001Z,23.10
2018-11-21T09:03:10.263Z,22.52
2018-11-21T09:05:40.376Z,21.20
2018-11-21T09:08:10.989Z,23.57
2018-11-21T09:10:42.314Z,23.27
2018-11-21T09:13:12.631Z,24.05
2018-11-21T09:15:42.817Z,23.97
2018-11-21T09:18:13.155Z,23.73
2018-11-21T09:20:43.513Z,21.27
2018-11-21T09:23:13.799Z,20.08
2018-11-21T09:25:43.956Z,22.03
2018-11-21T09:28:14.429Z,21.95
2018-11-21T09:30:47.167Z,21.77
2018-11-21T09:33:17.577Z,20.75
2018-11-21T09:35:47.917Z,21.20
2018-11-21T09:38:19.512Z,21.95
2018-11-21T09:40:49.916Z,22.07
2018-11-21T09:43:20.149Z,22.70
2018-11-21T09:45:50.525Z,21.93
2018-11-21T09:48:20.884Z,22.17
2018-11-21T09:50:51.378Z,22.83
2018-11-21T09:53:21.714Z,22.30
2018-11-21T09:55:52.192Z,20.83
2018-11-21T09:58:22.558Z,22.52
2018-11-21T10:01:30.413Z,22.27
2018-11-21T10:04:01.183Z,22.10
2018-11-21T10:06:33.928Z,20.63
2018-11-21T10:09:16.052Z,21.63
2018-11-21T10:11:46.340Z,20.93
2018-11-21T10:14:19.039Z,21.77
2018-11-21T10:16:51.482Z,19.87
2018-11-21T10:19:21.797Z,19.37
2018-11-21T10:21:52.114Z,21.40
2018-11-21T10:24:24.171Z,19.33
2018-11-21T10:26:54.373Z,19.67
2018-11-21T10:29:24.668Z,19.40
2018-11-21T10:31:55.308Z,19.67
2018-11-21T10:34:27.672Z,19.17
2018-11-21T10:36:58.243Z,19.03
2018-11-21T10:39:29.716Z,19.13
2018-11-21T10:42:00.187Z,17.53
2018-11-21T10:44:30.554Z,17.83
2018-11-21T10:47:00.728Z,17.40
2018-11-21T10:49:31.474Z,17.33
2018-11-21T10:52:01.874Z,16.83
2018-11-21T10:54:32.645Z,16.53
2018-11-21T10:57:04.720Z,17.13
2018-11-21T10:59:35.014Z,17.07
2018-11-21T11:02:43.254Z,15.97
2018-11-21T11:05:31.472Z,17.35
2018-11-21T11:08:23.970Z,18.40
2018-11-21T11:11:18.969Z,20.77
2018-11-21T11:14:26.648Z,20.37
2018-11-21T11:17:18.671Z,20.37
2018-11-21T11:20:08.731Z,22.13
2018-11-21T11:22:56.933Z,21.07
2018-11-21T11:25:46.434Z,20.07
2018-11-21T11:28:35.709Z,19.70
2018-11-21T11:31:35.230Z,19.47
2018-11-21T11:34:23.711Z,20.70
2018-11-21T11:37:11.651Z,21.17
2018-11-21T11:40:07.041Z,19.27
2018-11-21T11:42:55.068Z,21.10
2018-11-21T11:45:43.236Z,21.40
2018-11-21T11:48:32.651Z,20.23
2018-11-21T11:51:24.847Z,20.52
2018-11-21T11:54:12.873Z,21.77
2018-11-21T11:57:00.665Z,21.77
2018-11-21T11:59:55.741Z,23.30
2018-11-21T12:02:45.124Z,24.30
2018-11-21T12:05:32.791Z,27.10
2018-11-21T12:08:20.814Z,27.97
2018-11-21T12:11:08.776Z,29.98
2018-11-21T12:13:56.397Z,31.47
2018-11-21T12:16:48.191Z,33.10
2018-11-21T12:19:36.317Z,34.70
2018-11-21T12:22:25.785Z,34.47
2018-11-21T12:25:33.754Z,35.77
2018-11-21T12:28:21.685Z,36.33
2018-11-21T12:31:23.187Z,38.38
2018-11-21T12:34:11.507Z,38.73
2018-11-21T12:36:59.512Z,39.63
2018-11-21T12:39:47.393Z,39.70
2018-11-21T12:42:35.393Z,37.83
2018-11-21T12:45:22.992Z,41.00
2018-11-21T12:48:10.903Z,39.57
2018-11-21T12:51:00.426Z,39.67
2018-11-21T12:53:50.150Z,40.83
2018-11-21T12:56:39.414Z,42.57
2018-11-21T12:59:27.024Z,41.08
2018-11-21T13:02:16.158Z,40.73
2018-11-21T13:04:56.348Z,41.57
2018-11-21T13:07:44.274Z,43.20
2018-11-21T13:10:48.726Z,42.62
2018-11-21T13:13:41.267Z,43.10
2018-11-21T13:16:30.543Z,43.97
2018-11-21T13:19:18.695Z,44.83
2018-11-21T13:22:06.614Z,41.63
2018-11-21T13:25:02.059Z,43.37
2018-11-21T13:27:58.928Z,44.80
2018-11-21T13:30:51.270Z,44.70
2018-11-21T13:33:46.663Z,43.95
2018-11-21T13:36:38.972Z,46.10
2018-11-21T13:39:36.333Z,45.05
2018-11-21T13:42:14.787Z,44.73
2018-11-21T13:45:04.581Z,47.47
2018-11-21T13:47:54.044Z,45.07
2018-11-21T13:50:43.449Z,45.75
2018-11-21T13:53:25.453Z,47.43
2018-11-21T13:55:55.713Z,46.63
2018-11-21T13:58:25.969Z,46.27
2018-11-21T14:00:56.428Z,45.87
2018-11-21T14:03:27.144Z,46.40
2018-11-21T14:05:57.332Z,44.87
2018-11-21T14:08:27.547Z,45.67
2018-11-21T14:10:57.920Z,45.83
2018-11-21T14:13:28.239Z,45.83
2018-11-21T14:15:58.484Z,45.53
2018-11-21T14:18:28.852Z,47.87
2018-11-21T14:20:59.432Z,45.67
2018-11-21T14:23:29.634Z,47.07
2018-11-21T14:26:00.252Z,48.07
2018-11-21T14:28:32.425Z,47.80
2018-11-21T14:31:02.650Z,47.33
2018-11-21T14:33:32.849Z,47.40
2018-11-21T14:36:03.470Z,47.50
2018-11-21T14:38:33.953Z,47.37
2018-11-21T14:41:05.319Z,46.30
2018-11-21T14:43:35.883Z,46.57
2018-11-21T14:46:07.600Z,47.62
2018-11-21T14:48:38.278Z,45.27
2018-11-21T14:51:08.792Z,45.83
2018-11-21T14:53:39.128Z,45.63
2018-11-21T14:56:09.348Z,44.60
2018-11-21T14:58:39.756Z,46.90
2018-11-21T15:01:10.007Z,44.43
2018-11-21T15:03:40.421Z,45.40
2018-11-21T15:06:10.633Z,47.20
2018-11-21T15:08:40.874Z,45.57
2018-11-21T15:11:11.373Z,44.95
2018-11-21T15:13:41.557Z,45.00
2018-11-21T15:16:11.968Z,48.07
2018-11-21T15:18:42.760Z,44.15
2018-11-21T15:21:16.627Z,44.93
2018-11-21T15:23:43.611Z,46.97
2018-11-21T15:26:13.876Z,48.65
2018-11-21T15:28:44.104Z,44.47
2018-11-21T15:31:14.417Z,45.33
2018-11-21T15:33:44.695Z,43.97
2018-11-21T15:36:14.920Z,43.37
2018-11-21T15:38:45.161Z,43.97
2018-11-21T15:41:15.857Z,44.13
2018-11-21T15:43:46.254Z,44.40
2018-11-21T15:46:16.546Z,46.10
2018-11-21T15:48:46.999Z,44.77
2018-11-21T15:51:17.331Z,44.33
2018-11-21T15:53:47.555Z,46.20
2018-11-21T15:56:17.761Z,43.30
2018-11-21T15:58:49.101Z,46.30
2018-11-21T16:01:21.563Z,43.68
2018-11-21T16:03:52.142Z,44.10
2018-11-21T16:06:22.578Z,44.20
2018-11-21T16:08:52.873Z,46.17
2018-11-21T16:11:23.300Z,47.37
2018-11-21T16:13:53.777Z,44.73
2018-11-21T16:16:25.595Z,44.70
2018-11-21T16:18:56.093Z,45.53
2018-11-21T16:21:26.557Z,43.67
2018-11-21T16:23:57.943Z,44.73
2018-11-21T16:26:28.213Z,45.13
2018-11-21T16:28:58.892Z,45.67
2018-11-21T16:31:29.412Z,46.73
2018-11-21T16:34:02.000Z,44.07
2018-11-21T16:36:32.342Z,44.30
2018-11-21T16:39:02.850Z,42.87
2018-11-21T16:41:33.960Z,42.38
2018-11-21T16:44:04.447Z,43.97
2018-11-21T16:46:34.695Z,43.93
2018-11-21T16:49:05.455Z,44.07
2018-11-21T16:51:36.185Z,44.40
2018-11-21T16:54:06.718Z,41.93
2018-11-21T16:56:36.972Z,42.15
2018-11-21T16:59:07.297Z,41.50
2018-11-21T17:01:37.907Z,40.87
2018-11-21T17:04:08.331Z,40.30
2018-11-21T17:06:39.769Z,40.83
2018-11-21T17:09:11.925Z,42.03
2018-11-21T17:11:42.106Z,42.60
2018-11-21T17:14:12.363Z,42.53
2018-11-21T17:16:42.654Z,41.40
2018-11-21T17:19:13.195Z,39.93
2018-11-21T17:21:43.478Z,42.37
2018-11-21T17:24:14.212Z,40.40
2018-11-21T17:26:44.567Z,42.10
2018-11-21T17:29:14.725Z,40.60
2018-11-21T17:31:45.003Z,40.73
2018-11-21T17:34:15.199Z,39.38
2018-11-21T17:36:45.516Z,39.63
2018-11-21T17:39:16.162Z,41.30
2018-11-21T17:41:46.450Z,40.57
2018-11-21T17:44:16.578Z,38.17
2018-11-21T17:46:46.798Z,39.80
2018-11-21T17:49:17.075Z,39.38
2018-11-21T17:51:47.568Z,39.43
2018-11-21T17:54:19.210Z,39.55
2018-11-21T17:56:49.766Z,38.80
2018-11-21T17:59:20.018Z,40.17
2018-11-21T18:01:50.446Z,38.67
2018-11-21T18:04:20.886Z,41.02
2018-11-21T18:06:51.179Z,40.67
2018-11-21T18:09:21.702Z,40.28
2018-11-21T18:11:52.108Z,38.17
2018-11-21T18:14:22.586Z,38.13
2018-11-21T18:16:52.808Z,38.55
2018-11-21T18:19:23.161Z,38.37
2018-11-21T18:21:53.481Z,36.70
2018-11-21T18:24:23.631Z,37.17
2018-11-21T18:26:56.057Z,39.77
2018-11-21T18:29:26.284Z,39.23
2018-11-21T18:31:56.741Z,38.95
2018-11-21T18:34:28.455Z,39.13
2018-11-21T18:36:59.735Z,37.17
2018-11-21T18:39:32.062Z,37.83
2018-11-21T18:42:02.488Z,39.37
2018-11-21T18:44:32.744Z,38.23
2018-11-21T18:47:03.352Z,40.43
2018-11-21T18:49:33.904Z,39.90
2018-11-21T18:52:04.302Z,39.97
2018-11-21T18:54:34.543Z,38.93
2018-11-21T18:57:21.536Z,39.50
2018-11-21T19:00:15.094Z,37.80
2018-11-21T19:02:45.569Z,39.57
2018-11-21T19:05:15.976Z,38.08
2018-11-21T19:07:48.211Z,38.67
2018-11-21T19:10:18.448Z,38.95
2018-11-21T19:12:48.556Z,35.90
2018-11-21T19:15:19.698Z,37.58
2018-11-21T19:17:49.841Z,38.23
2018-11-21T19:20:22.725Z,39.00
2018-11-21T19:22:52.850Z,38.50
2018-11-21T19:25:23.216Z,36.83
2018-11-21T19:27:54.965Z,37.83
2018-11-21T19:30:25.313Z,36.45
2018-11-21T19:32:55.816Z,37.03
2018-11-21T19:35:26.072Z,37.33
2018-11-21T19:37:56.631Z,37.00
2018-11-21T19:40:27.225Z,36.98
2018-11-21T19:42:57.466Z,36.23
2018-11-21T19:45:27.863Z,36.23
2018-11-21T19:47:58.281Z,39.00
2018-11-21T19:50:28.526Z,36.73
2018-11-21T19:53:00.787Z,36.70
2018-11-21T19:55:33.560Z,38.63
2018-11-21T19:58:03.862Z,36.23
2018-11-21T20:00:35.740Z,35.83
2018-11-21T20:03:06.516Z,37.20
2018-11-21T20:05:37.042Z,37.53
2018-11-21T20:08:07.535Z,36.93
2018-11-21T20:10:38.053Z,37.60
2018-11-21T20:13:08.403Z,36.60
2018-11-21T20:15:38.834Z,38.23
2018-11-21T20:18:08.964Z,37.20
2018-11-21T20:20:40.470Z,37.83
2018-11-21T20:23:10.708Z,39.40
2018-11-21T20:25:40.862Z,37.07
2018-11-21T20:28:11.237Z,36.70
2018-11-21T20:30:42.395Z,37.27
2018-11-21T20:33:12.721Z,37.67
2018-11-21T20:35:43.141Z,37.67
2018-11-21T20:38:14.243Z,37.90
2018-11-21T20:40:44.494Z,38.23
2018-11-21T20:43:15.690Z,38.10
2018-11-21T20:45:46.328Z,37.20
2018-11-21T20:48:17.897Z,36.73
2018-11-21T20:50:50.505Z,37.00
2018-11-21T20:53:22.760Z,37.27
2018-11-21T20:55:53.122Z,37.80
2018-11-21T20:58:23.465Z,37.90
2018-11-21T21:00:53.659Z,37.63
2018-11-21T21:03:25.354Z,37.77
2018-11-21T21:05:56.879Z,39.20
2018-11-21T21:08:27.147Z,39.13
2018-11-21T21:10:58.729Z,39.90
2018-11-21T21:13:28.939Z,40.53
2018-11-21T21:15:59.627Z,39.73
2018-11-21T21:18:29.752Z,37.40
2018-11-21T21:20:59.948Z,40.10
2018-11-21T21:23:30.552Z,39.80
2018-11-21T21:26:00.956Z,38.90
2018-11-21T21:28:31.566Z,39.67
2018-11-21T21:31:03.224Z,39.67
2018-11-21T21:33:36.101Z,39.93
2018-11-21T21:36:07.708Z,40.37
2018-11-21T21:38:40.374Z,39.53
2018-11-21T21:41:12.870Z,39.33
2018-11-21T21:43:45.416Z,40.50
2018-11-21T21:46:18.294Z,40.20
2018-11-21T21:48:50.839Z,40.17
2018-11-21T21:51:23.378Z,41.80
2018-11-21T21:53:53.916Z,39.77
2018-11-21T21:56:24.419Z,40.33
2018-11-21T21:58:54.828Z,41.20
2018-11-21T22:01:26.201Z,41.17
2018-11-21T22:03:56.579Z,40.57
2018-11-21T22:06:27.036Z,41.47
2018-11-21T22:08:57.356Z,42.17
2018-11-21T22:11:27.762Z,40.77
2018-11-21T22:13:58.032Z,42.00
2018-11-21T22:16:28.594Z,42.60
2018-11-21T22:18:58.969Z,42.80
2018-11-21T22:21:31.199Z,41.80
2018-11-21T22:24:02.451Z,41.40
2018-11-21T22:26:32.934Z,43.30
2018-11-21T22:29:03.224Z,41.47
2018-11-21T22:31:37.051Z,41.17
2018-11-21T22:34:08.561Z,40.57
2018-11-21T22:36:40.544Z,43.00
2018-11-21T22:39:14.021Z,42.78
2018-11-21T22:41:44.645Z,41.77
2018-11-21T22:44:15.967Z,42.63
2018-11-21T22:46:48.003Z,41.13
2018-11-21T22:49:18.875Z,40.60
2018-11-21T22:51:49.308Z,41.50
2018-11-21T22:54:19.833Z,41.65
2018-11-21T22:56:50.660Z,42.70
2018-11-21T22:59:21.179Z,42.88
2018-11-21T23:01:51.949Z,42.43
2018-11-21T23:04:22.387Z,41.58
2018-11-21T23:06:53.087Z,41.10
2018-11-21T23:09:23.766Z,41.50
2018-11-21T23:11:54.023Z,42.10
2018-11-21T23:14:24.377Z,42.90
2018-11-21T23:16:54.656Z,43.03
2018-11-21T23:19:26.482Z,41.87
2018-11-21T23:21:56.783Z,42.97
2018-11-21T23:24:27.351Z,41.60
2018-11-21T23:26:57.723Z,41.80
2018-11-21T23:29:28.098Z,41.50
2018-11-21T23:31:58.422Z,43.67
2018-11-21T23:34:28.593Z,44.17
2018-11-21T23:36:59.020Z,42.90
2018-11-21T23:39:29.539Z,41.90
2018-11-21T23:42:00.038Z,42.20
2018-11-21T23:44:30.500Z,42.67
2018-11-21T23:47:00.877Z,41.33
2018-11-21T23:49:31.260Z,43.63
2018-11-21T23:52:02.788Z,42.57
2018-11-21T23:54:34.212Z,41.47
2018-11-21T23:57:16.020Z,43.48
2018-11-21T23:59:35.807Z,43.40
